PWSweather.com
Personal Weather Stations
Station Observations
46800
XativaES 46800

XativaES 46800

Lat: 38.9917502, Lon: -0.5136488000000554

Elevation: 103

Station Type: Davis Vantage Pro2 Aspirated

http://www.meteoxativa.es/

Latest ConditionsUpdated 10:15:00 PM GMT+01:01 Thursday, Oct 18, 2018
Currently Today's Max Today's Min Today's Average
Temperature 61.9°F16.6°C 63.9°F17.7°C 57.2°F14.0°C 60.5°F15.8°C
Dew Point 59.0°F15.0°C 60.8°F16.0°C 53.4°F11.9°C 57.1°F13.9°C
Winds Calm Calm 3.5 mph -5.6 kmh - - 0.5 mph 0.8 kmh
Wind Gusts -- 6.9 mph11.1 kmh - -
Humidity 90% 93% 84% 88%
Pressure 29.83 in1010.2 mb 29.93 in1013.5 mb 29.77 in1008.1 mb -
Precipitation - 0.72 in18.3 mm - -
Hour Temp Dew Point Humidity Winds Wind Gusts Pressure Precip Precip Rate Daily Precip Total
10:15 PM 61.9°F16.6°C 59.0°F15.0°C 90% Calm Calm -- 29.83 in1010.2 mb - 0.00 in0.0 mm 0.72 in18.3 mm
10:00 PM 62.2°F16.8°C 59.3°F15.2°C 90% Calm Calm 1.2 mph1.9 kmh 29.83 in1010.2 mb - 0.00 in0.0 mm 0.72 in18.3 mm
09:45 PM 62.4°F16.9°C 59.5°F15.3°C 90% Calm Calm -- 29.82 in1009.8 mb - 0.00 in0.0 mm 0.72 in18.3 mm
09:30 PM 62.3°F16.8°C 59.4°F15.2°C 90% Calm Calm -- 29.82 in1009.8 mb - 0.00 in0.0 mm 0.72 in18.3 mm
09:15 PM 62.4°F16.9°C 59.5°F15.3°C 90% 1.2 mph S1.9 kmh S 2.3 mph3.7 kmh 29.82 in1009.8 mb - 0.00 in0.0 mm 0.72 in18.3 mm
09:00 PM 62.6°F17.0°C 59.7°F15.4°C 90% Calm Calm -- 29.82 in1009.8 mb - 0.00 in0.0 mm 0.72 in18.3 mm
08:45 PM 62.8°F17.1°C 59.9°F15.5°C 90% Calm Calm -- 29.82 in1009.8 mb - 0.00 in0.0 mm 0.72 in18.3 mm
08:30 PM 62.7°F17.1°C 59.5°F15.3°C 89% Calm Calm -- 29.81 in1009.5 mb - 0.00 in0.0 mm 0.72 in18.3 mm
08:15 PM 62.5°F16.9°C 59.3°F15.2°C 89% Calm Calm -- 29.81 in1009.5 mb - 0.00 in0.0 mm 0.72 in18.3 mm
08:00 PM 62.5°F16.9°C 59.5°F15.3°C 90% Calm Calm -- 29.80 in1009.1 mb - 0.00 in0.0 mm 0.72 in18.3 mm
07:45 PM 62.9°F17.2°C 60.0°F15.6°C 90% Calm Calm -- 29.79 in1008.8 mb - 0.00 in0.0 mm 0.72 in18.3 mm
07:30 PM 63.4°F17.4°C 60.5°F15.8°C 90% Calm Calm -- 29.79 in1008.8 mb - 0.00 in0.0 mm 0.72 in18.3 mm
07:15 PM 63.8°F17.7°C 60.8°F16.0°C 90% Calm Calm -- 29.79 in1008.8 mb - 0.00 in0.0 mm 0.72 in18.3 mm
07:00 PM 63.3°F17.4°C 60.0°F15.6°C 89% Calm Calm -- 29.79 in1008.8 mb - 0.00 in0.0 mm 0.72 in18.3 mm
06:45 PM 63.4°F17.4°C 60.1°F15.6°C 89% Calm Calm -- 29.78 in1008.5 mb - 0.00 in0.0 mm 0.72 in18.3 mm
06:30 PM 63.4°F17.4°C 60.1°F15.6°C 89% Calm Calm -- 29.78 in1008.5 mb - 0.00 in0.0 mm 0.72 in18.3 mm
06:15 PM 63.6°F17.6°C 60.3°F15.7°C 89% Calm Calm -- 29.77 in1008.1 mb - 0.00 in0.0 mm 0.72 in18.3 mm
06:00 PM 63.6°F17.6°C 60.3°F15.7°C 89% Calm Calm -- 29.77 in1008.1 mb - 0.00 in0.0 mm 0.72 in18.3 mm
05:45 PM 63.8°F17.7°C 60.5°F15.8°C 89% Calm Calm -- 29.77 in1008.1 mb - 0.00 in0.0 mm 0.72 in18.3 mm
05:30 PM 63.9°F17.7°C 60.3°F15.7°C 88% Calm Calm -- 29.77 in1008.1 mb - 0.00 in0.0 mm 0.72 in18.3 mm
05:15 PM 63.8°F17.7°C 60.2°F15.7°C 88% Calm Calm -- 29.77 in1008.1 mb - 0.00 in0.0 mm 0.72 in18.3 mm
05:00 PM 63.6°F17.6°C 60.0°F15.6°C 88% Calm Calm -- 29.77 in1008.1 mb - 0.00 in0.0 mm 0.72 in18.3 mm
04:45 PM 63.6°F17.6°C 60.3°F15.7°C 89% Calm Calm -- 29.78 in1008.5 mb - 0.00 in0.0 mm 0.72 in18.3 mm
04:30 PM 63.2°F17.3°C 59.9°F15.5°C 89% Calm Calm -- 29.78 in1008.5 mb - 0.00 in0.0 mm 0.72 in18.3 mm
04:15 PM 63.0°F17.2°C 60.1°F15.6°C 90% 1.2 mph SW1.9 kmh SW 2.3 mph3.7 kmh 29.78 in1008.5 mb - 0.00 in0.0 mm 0.72 in18.3 mm
04:00 PM 62.8°F17.1°C 59.9°F15.5°C 90% 1.2 mph WSW1.9 kmh WSW 3.5 mph5.6 kmh 29.78 in1008.5 mb - 0.00 in0.0 mm 0.72 in18.3 mm
03:45 PM 62.7°F17.1°C 60.1°F15.6°C 91% 1.2 mph WSW1.9 kmh WSW 3.5 mph5.6 kmh 29.78 in1008.5 mb - 0.00 in0.0 mm 0.72 in18.3 mm
03:30 PM 62.3°F16.8°C 59.7°F15.4°C 91% 1.2 mph WSW1.9 kmh WSW 2.3 mph3.7 kmh 29.78 in1008.5 mb - 0.00 in0.0 mm 0.72 in18.3 mm
03:15 PM 62.4°F16.9°C 59.8°F15.4°C 91% Calm Calm 3.5 mph5.6 kmh 29.79 in1008.8 mb - 0.00 in0.0 mm 0.72 in18.3 mm
03:00 PM 62.5°F16.9°C 60.2°F15.7°C 92% 3.5 mph W5.6 kmh W 6.9 mph11.1 kmh 29.78 in1008.5 mb - 0.00 in0.0 mm 0.72 in18.3 mm
02:45 PM 62.3°F16.8°C 60.0°F15.6°C 92% 1.2 mph W1.9 kmh W 2.3 mph3.7 kmh 29.78 in1008.5 mb - 0.00 in0.0 mm 0.72 in18.3 mm
02:30 PM 62.0°F16.7°C 60.0°F15.6°C 93% 1.2 mph W1.9 kmh W 2.3 mph3.7 kmh 29.79 in1008.8 mb - 0.00 in0.0 mm 0.72 in18.3 mm
02:15 PM 61.7°F16.5°C 59.7°F15.4°C 93% Calm Calm 2.3 mph3.7 kmh 29.80 in1009.1 mb - 0.01 in0.3 mm 0.72 in18.3 mm
02:00 PM 61.7°F16.5°C 59.7°F15.4°C 93% 3.5 mph W5.6 kmh W 3.5 mph5.6 kmh 29.80 in1009.1 mb - 0.00 in0.0 mm 0.72 in18.3 mm
01:45 PM 61.4°F16.3°C 59.4°F15.2°C 93% 1.2 mph WSW1.9 kmh WSW 3.5 mph5.6 kmh 29.81 in1009.5 mb - 0.00 in0.0 mm 0.72 in18.3 mm
01:30 PM 61.2°F16.2°C 59.2°F15.1°C 93% 1.2 mph W1.9 kmh W 2.3 mph3.7 kmh 29.81 in1009.5 mb - 0.03 in0.8 mm 0.72 in18.3 mm
01:15 PM 61.1°F16.2°C 59.1°F15.1°C 93% 2.3 mph WSW3.7 kmh WSW 3.5 mph5.6 kmh 29.81 in1009.5 mb - 0.03 in0.8 mm 0.69 in17.5 mm
01:00 PM 61.0°F16.1°C 59.0°F15.0°C 93% 1.2 mph W1.9 kmh W 3.5 mph5.6 kmh 29.82 in1009.8 mb - 0.01 in0.3 mm 0.66 in16.8 mm
12:45 PM 60.8°F16.0°C 58.8°F14.9°C 93% 2.3 mph WSW3.7 kmh WSW 3.5 mph5.6 kmh 29.82 in1009.8 mb - 0.02 in0.5 mm 0.65 in16.5 mm
12:30 PM 60.6°F15.9°C 58.6°F14.8°C 93% 2.3 mph SW3.7 kmh SW 3.5 mph5.6 kmh 29.83 in1010.2 mb - 0.03 in0.8 mm 0.64 in16.3 mm
12:15 PM 60.4°F15.8°C 58.4°F14.7°C 93% 2.3 mph WSW3.7 kmh WSW 4.6 mph7.4 kmh 29.84 in1010.5 mb - 0.03 in0.8 mm 0.61 in15.5 mm
12:00 PM 60.1°F15.6°C 58.1°F14.5°C 93% 2.3 mph WSW3.7 kmh WSW 2.3 mph3.7 kmh 29.84 in1010.5 mb - 0.03 in0.8 mm 0.58 in14.7 mm
11:45 AM 59.8°F15.4°C 57.5°F14.2°C 92% 1.2 mph SW1.9 kmh SW 3.5 mph5.6 kmh 29.84 in1010.5 mb - 0.06 in1.5 mm 0.54 in13.7 mm
11:30 AM 59.4°F15.2°C 57.0°F13.9°C 92% 2.3 mph SW3.7 kmh SW 3.5 mph5.6 kmh 29.84 in1010.5 mb - 0.09 in2.3 mm 0.49 in12.4 mm
11:15 AM 59.1°F15.1°C 56.8°F13.8°C 92% 3.5 mph WSW5.6 kmh WSW 6.9 mph11.1 kmh 29.85 in1010.8 mb - 0.09 in2.3 mm 0.40 in10.2 mm
11:00 AM 59.2°F15.1°C 56.6°F13.7°C 91% Calm Calm -- 29.85 in1010.8 mb - 0.08 in2.0 mm 0.32 in8.1 mm
10:45 AM 59.2°F15.1°C 56.6°F13.7°C 91% Calm Calm -- 29.86 in1011.2 mb - 0.08 in2.0 mm 0.25 in6.4 mm
10:30 AM 59.2°F15.1°C 56.3°F13.5°C 90% Calm Calm -- 29.86 in1011.2 mb - 0.05 in1.3 mm 0.18 in4.6 mm
10:15 AM 59.1°F15.1°C 55.9°F13.3°C 89% Calm Calm -- 29.85 in1010.8 mb - 0.07 in1.8 mm 0.14 in3.6 mm
10:00 AM 59.4°F15.2°C 55.9°F13.3°C 88% Calm Calm -- 29.85 in1010.8 mb - 0.05 in1.3 mm 0.07 in1.8 mm
09:45 AM 59.9°F15.5°C 56.3°F13.5°C 88% Calm Calm -- 29.86 in1011.2 mb - 0.02 in0.5 mm 0.03 in0.8 mm
09:30 AM 59.7°F15.4°C 55.5°F13.1°C 86% Calm Calm -- 29.85 in1010.8 mb - 0.01 in0.3 mm 0.01 in0.3 mm
09:15 AM 59.8°F15.4°C 55.6°F13.1°C 86% Calm Calm -- 29.84 in1010.5 mb - 0.00 in0.0 mm 0.00 in0.0 mm
09:00 AM 59.6°F15.3°C 55.1°F12.8°C 85% Calm Calm -- 29.85 in1010.8 mb - 0.00 in0.0 mm 0.00 in0.0 mm
08:45 AM 59.5°F15.3°C 55.0°F12.8°C 85% Calm Calm -- 29.85 in1010.8 mb - 0.00 in0.0 mm 0.00 in0.0 mm
08:30 AM 59.3°F15.2°C 54.8°F12.7°C 85% Calm Calm -- 29.85 in1010.8 mb - 0.00 in0.0 mm 0.00 in0.0 mm
08:15 AM 59.1°F15.1°C 54.6°F12.6°C 85% Calm Calm -- 29.84 in1010.5 mb - 0.00 in0.0 mm 0.00 in0.0 mm
08:00 AM 58.9°F14.9°C 54.4°F12.4°C 85% Calm Calm -- 29.84 in1010.5 mb - 0.00 in0.0 mm 0.00 in0.0 mm
07:45 AM 58.6°F14.8°C 53.8°F12.1°C 84% Calm Calm -- 29.84 in1010.5 mb - 0.00 in0.0 mm 0.00 in0.0 mm
07:30 AM 58.3°F14.6°C 53.8°F12.1°C 85% Calm Calm -- 29.84 in1010.5 mb - 0.00 in0.0 mm 0.00 in0.0 mm
07:15 AM 58.3°F14.6°C 54.1°F12.3°C 86% Calm Calm -- 29.84 in1010.5 mb - 0.00 in0.0 mm 0.00 in0.0 mm
07:00 AM 58.3°F14.6°C 54.1°F12.3°C 86% Calm Calm -- 29.84 in1010.5 mb - 0.00 in0.0 mm 0.00 in0.0 mm
06:45 AM 58.2°F14.6°C 54.1°F12.3°C 86% Calm Calm -- 29.85 in1010.8 mb - 0.00 in0.0 mm 0.00 in0.0 mm
06:30 AM 58.4°F14.7°C 54.2°F12.3°C 86% Calm Calm -- 29.85 in1010.8 mb - 0.00 in0.0 mm 0.00 in0.0 mm
06:15 AM 58.3°F14.6°C 53.8°F12.1°C 85% Calm Calm -- 29.85 in1010.8 mb - 0.00 in0.0 mm 0.00 in0.0 mm
06:00 AM 58.3°F14.6°C 54.2°F12.3°C 86% Calm Calm -- 29.86 in1011.2 mb - 0.00 in0.0 mm 0.00 in0.0 mm
05:45 AM 58.3°F14.6°C 54.2°F12.3°C 86% Calm Calm -- 29.86 in1011.2 mb - 0.00 in0.0 mm 0.00 in0.0 mm
05:30 AM 58.3°F14.6°C 54.2°F12.3°C 86% Calm Calm -- 29.86 in1011.2 mb - 0.00 in0.0 mm 0.00 in0.0 mm
05:15 AM 58.6°F14.8°C 54.1°F12.3°C 85% Calm Calm 1.2 mph1.9 kmh 29.86 in1011.2 mb - 0.00 in0.0 mm 0.00 in0.0 mm
05:00 AM 58.3°F14.6°C 53.5°F11.9°C 84% 1.2 mph S1.9 kmh S 3.5 mph5.6 kmh 29.86 in1011.2 mb - 0.00 in0.0 mm 0.00 in0.0 mm
04:45 AM 58.4°F14.7°C 54.3°F12.4°C 86% 1.2 mph WSW1.9 kmh WSW 3.5 mph5.6 kmh 29.86 in1011.2 mb - 0.00 in0.0 mm 0.00 in0.0 mm
04:30 AM 57.8°F14.3°C 54.0°F12.2°C 87% Calm Calm -- 29.86 in1011.2 mb - 0.00 in0.0 mm 0.00 in0.0 mm
04:15 AM 57.2°F14.0°C 53.4°F11.9°C 87% Calm Calm -- 29.86 in1011.2 mb - 0.00 in0.0 mm 0.00 in0.0 mm
04:00 AM 57.7°F14.3°C 53.6°F12.0°C 86% Calm Calm -- 29.86 in1011.2 mb - 0.00 in0.0 mm 0.00 in0.0 mm
03:45 AM 58.2°F14.6°C 54.1°F12.3°C 86% Calm Calm 1.2 mph1.9 kmh 29.86 in1011.2 mb - 0.00 in0.0 mm 0.00 in0.0 mm
03:30 AM 58.3°F14.6°C 53.8°F12.1°C 85% Calm Calm -- 29.86 in1011.2 mb - 0.00 in0.0 mm 0.00 in0.0 mm
03:15 AM 57.8°F14.3°C 53.4°F11.9°C 85% 2.3 mph SSW3.7 kmh SSW 3.5 mph5.6 kmh 29.87 in1011.5 mb - 0.00 in0.0 mm 0.00 in0.0 mm
03:00 AM 58.1°F14.5°C 54.3°F12.4°C 87% 2.3 mph WSW3.7 kmh WSW 5.8 mph9.3 kmh 29.87 in1011.5 mb - 0.00 in0.0 mm 0.00 in0.0 mm
02:45 AM 58.0°F14.4°C 54.2°F12.3°C 87% Calm Calm -- 29.88 in1011.9 mb - 0.00 in0.0 mm 0.00 in0.0 mm
02:30 AM 58.2°F14.6°C 54.7°F12.6°C 88% Calm Calm -- 29.88 in1011.9 mb - 0.00 in0.0 mm 0.00 in0.0 mm
02:15 AM 58.1°F14.5°C 54.6°F12.6°C 88% Calm Calm -- 29.89 in1012.2 mb - 0.00 in0.0 mm 0.00 in0.0 mm
02:00 AM 58.2°F14.6°C 54.4°F12.4°C 87% Calm Calm 1.2 mph1.9 kmh 29.90 in1012.5 mb - 0.00 in0.0 mm 0.00 in0.0 mm
01:45 AM 58.4°F14.7°C 54.5°F12.5°C 87% Calm Calm -- 29.90 in1012.5 mb - 0.00 in0.0 mm 0.00 in0.0 mm
01:30 AM 58.4°F14.7°C 54.3°F12.4°C 86% Calm Calm -- 29.90 in1012.5 mb - 0.00 in0.0 mm 0.00 in0.0 mm
01:15 AM 58.7°F14.8°C 54.9°F12.7°C 87% Calm Calm 1.2 mph1.9 kmh 29.91 in1012.9 mb - 0.00 in0.0 mm 0.00 in0.0 mm
01:00 AM 58.8°F14.9°C 54.7°F12.6°C 86% Calm Calm -- 29.91 in1012.9 mb - 0.00 in0.0 mm 0.00 in0.0 mm
12:45 AM 59.2°F15.1°C 55.1°F12.8°C 86% Calm Calm -- 29.92 in1013.2 mb - 0.00 in0.0 mm 0.00 in0.0 mm
12:30 AM 59.4°F15.2°C 54.9°F12.7°C 85% Calm Calm -- 29.92 in1013.2 mb - 0.00 in0.0 mm 0.00 in0.0 mm
12:15 AM 59.7°F15.4°C 54.9°F12.7°C 84% Calm Calm -- 29.92 in1013.2 mb - 0.00 in0.0 mm 0.00 in0.0 mm
12:00 AM 60.3°F15.7°C 55.5°F13.1°C 84% Calm Calm -- 29.93 in1013.5 mb - 0.00 in0.0 mm 0.00 in0.0 mm